sensor_id;sensor_type;location;lat;lon;timestamp;temperature;humidity
71436;SHT31;59251;51.326;12.370;2022-11-21T00:00:47;-0.03;97.14
71436;SHT31;59251;51.326;12.370;2022-11-21T00:03:13;0.09;97.12
71436;SHT31;59251;51.326;12.370;2022-11-21T00:05:41;0.01;96.94
71436;SHT31;59251;51.326;12.370;2022-11-21T00:08:07;0.00;96.79
71436;SHT31;59251;51.326;12.370;2022-11-21T00:10:32;-0.02;97.08
71436;SHT31;59251;51.326;12.370;2022-11-21T00:12:58;0.01;97.08
71436;SHT31;59251;51.326;12.370;2022-11-21T00:15:25;-0.02;97.21
71436;SHT31;59251;51.326;12.370;2022-11-21T00:17:51;0.15;97.17
71436;SHT31;59251;51.326;12.370;2022-11-21T00:20:18;0.05;97.06
71436;SHT31;59251;51.326;12.370;2022-11-21T00:22:44;0.02;97.10
71436;SHT31;59251;51.326;12.370;2022-11-21T00:25:10;0.14;97.92
71436;SHT31;59251;51.326;12.370;2022-11-21T00:27:36;0.19;97.48
71436;SHT31;59251;51.326;12.370;2022-11-21T00:30:02;0.19;97.41
71436;SHT31;59251;51.326;12.370;2022-11-21T00:32:27;0.22;97.36
71436;SHT31;59251;51.326;12.370;2022-11-21T00:34:53;0.17;97.50
71436;SHT31;59251;51.326;12.370;2022-11-21T00:37:18;0.30;97.55
71436;SHT31;59251;51.326;12.370;2022-11-21T00:39:43;0.39;97.47
71436;SHT31;59251;51.326;12.370;2022-11-21T00:42:09;0.33;97.19
71436;SHT31;59251;51.326;12.370;2022-11-21T00:44:34;0.57;97.29
71436;SHT31;59251;51.326;12.370;2022-11-21T00:47:00;0.44;96.76
71436;SHT31;59251;51.326;12.370;2022-11-21T00:49:25;0.44;97.26
71436;SHT31;59251;51.326;12.370;2022-11-21T00:51:50;0.52;97.29
71436;SHT31;59251;51.326;12.370;2022-11-21T00:54:16;0.69;96.99
71436;SHT31;59251;51.326;12.370;2022-11-21T00:56:41;0.50;97.24
71436;SHT31;59251;51.326;12.370;2022-11-21T00:59:07;0.42;97.42
71436;SHT31;59251;51.326;12.370;2022-11-21T01:01:32;0.44;97.96
71436;SHT31;59251;51.326;12.370;2022-11-21T01:03:58;0.55;97.88
71436;SHT31;59251;51.326;12.370;2022-11-21T01:06:23;0.59;97.48
71436;SHT31;59251;51.326;12.370;2022-11-21T01:08:49;0.50;97.76
71436;SHT31;59251;51.326;12.370;2022-11-21T01:11:17;0.46;97.90
71436;SHT31;59251;51.326;12.370;2022-11-21T01:13:44;0.42;98.13
71436;SHT31;59251;51.326;12.370;2022-11-21T01:16:15;0.39;98.25
71436;SHT31;59251;51.326;12.370;2022-11-21T01:18:40;0.41;98.38
71436;SHT31;59251;51.326;12.370;2022-11-21T01:21:17;0.46;98.34
71436;SHT31;59251;51.326;12.370;2022-11-21T01:23:43;0.48;98.26
71436;SHT31;59251;51.326;12.370;2022-11-21T01:26:17;0.49;98.30
71436;SHT31;59251;51.326;12.370;2022-11-21T01:28:43;0.48;98.18
71436;SHT31;59251;51.326;12.370;2022-11-21T01:31:15;0.50;98.40
71436;SHT31;59251;51.326;12.370;2022-11-21T01:33:41;0.46;98.43
71436;SHT31;59251;51.326;12.370;2022-11-21T01:36:20;0.45;98.55
71436;SHT31;59251;51.326;12.370;2022-11-21T01:38:49;0.44;98.59
71436;SHT31;59251;51.326;12.370;2022-11-21T01:41:20;0.45;98.67
71436;SHT31;59251;51.326;12.370;2022-11-21T01:43:46;0.48;98.78
71436;SHT31;59251;51.326;12.370;2022-11-21T01:46:22;0.52;98.76
71436;SHT31;59251;51.326;12.370;2022-11-21T01:49:07;0.46;98.68
71436;SHT31;59251;51.326;12.370;2022-11-21T01:51:41;0.48;98.86
71436;SHT31;59251;51.326;12.370;2022-11-21T01:54:25;0.46;98.78
71436;SHT31;59251;51.326;12.370;2022-11-21T01:56:54;0.39;98.69
71436;SHT31;59251;51.326;12.370;2022-11-21T01:59:28;0.45;98.85
71436;SHT31;59251;51.326;12.370;2022-11-21T02:01:55;0.49;98.97
71436;SHT31;59251;51.326;12.370;2022-11-21T02:04:26;0.45;98.81
71436;SHT31;59251;51.326;12.370;2022-11-21T02:06:53;0.49;98.78
71436;SHT31;59251;51.326;12.370;2022-11-21T02:09:19;0.62;98.78
71436;SHT31;59251;51.326;12.370;2022-11-21T02:11:51;0.46;98.77
71436;SHT31;59251;51.326;12.370;2022-11-21T02:14:18;0.55;98.86
71436;SHT31;59251;51.326;12.370;2022-11-21T02:16:45;0.53;99.00
71436;SHT31;59251;51.326;12.370;2022-11-21T02:19:18;0.48;98.71
71436;SHT31;59251;51.326;12.370;2022-11-21T02:22:01;0.46;98.96
71436;SHT31;59251;51.326;12.370;2022-11-21T02:24:45;0.67;99.18
71436;SHT31;59251;51.326;12.370;2022-11-21T02:27:11;0.63;98.79
71436;SHT31;59251;51.326;12.370;2022-11-21T02:29:38;0.52;98.75
71436;SHT31;59251;51.326;12.370;2022-11-21T02:32:05;0.55;98.97
71436;SHT31;59251;51.326;12.370;2022-11-21T02:34:32;0.59;99.06
71436;SHT31;59251;51.326;12.370;2022-11-21T02:36:58;0.55;98.92
71436;SHT31;59251;51.326;12.370;2022-11-21T02:39:33;0.62;98.78
71436;SHT31;59251;51.326;12.370;2022-11-21T02:42:13;0.66;98.70
71436;SHT31;59251;51.326;12.370;2022-11-21T02:47:13;0.67;98.66
71436;SHT31;59251;51.326;12.370;2022-11-21T02:49:52;0.59;98.67
71436;SHT31;59251;51.326;12.370;2022-11-21T02:52:20;0.69;98.79
71436;SHT31;59251;51.326;12.370;2022-11-21T02:54:46;0.80;98.51
71436;SHT31;59251;51.326;12.370;2022-11-21T02:57:11;0.66;98.59
71436;SHT31;59251;51.326;12.370;2022-11-21T02:59:36;0.59;98.73
71436;SHT31;59251;51.326;12.370;2022-11-21T03:02:02;0.63;98.89
71436;SHT31;59251;51.326;12.370;2022-11-21T03:04:27;0.70;98.93
71436;SHT31;59251;51.326;12.370;2022-11-21T03:06:53;0.90;98.74
71436;SHT31;59251;51.326;12.370;2022-11-21T03:09:19;0.84;98.30
71436;SHT31;59251;51.326;12.370;2022-11-21T03:11:44;0.83;98.31
71436;SHT31;59251;51.326;12.370;2022-11-21T03:14:10;1.05;98.17
71436;SHT31;59251;51.326;12.370;2022-11-21T03:16:35;1.09;97.94
71436;SHT31;59251;51.326;12.370;2022-11-21T03:19:01;1.17;97.68
71436;SHT31;59251;51.326;12.370;2022-11-21T03:21:26;0.81;97.65
71436;SHT31;59251;51.326;12.370;2022-11-21T03:23:51;0.80;98.08
71436;SHT31;59251;51.326;12.370;2022-11-21T03:26:17;1.00;98.17
71436;SHT31;59251;51.326;12.370;2022-11-21T03:28:42;1.07;97.55
71436;SHT31;59251;51.326;12.370;2022-11-21T03:31:07;1.05;96.56
71436;SHT31;59251;51.326;12.370;2022-11-21T03:33:33;1.00;97.09
71436;SHT31;59251;51.326;12.370;2022-11-21T03:35:58;1.17;96.64
71436;SHT31;59251;51.326;12.370;2022-11-21T03:38:24;1.13;96.27
71436;SHT31;59251;51.326;12.370;2022-11-21T03:40:49;1.17;96.00
71436;SHT31;59251;51.326;12.370;2022-11-21T03:43:15;1.11;96.18
71436;SHT31;59251;51.326;12.370;2022-11-21T03:45:40;1.00;95.77
71436;SHT31;59251;51.326;12.370;2022-11-21T03:48:06;0.88;95.68
71436;SHT31;59251;51.326;12.370;2022-11-21T03:50:31;0.94;96.05
71436;SHT31;59251;51.326;12.370;2022-11-21T03:52:56;0.86;96.01
71436;SHT31;59251;51.326;12.370;2022-11-21T03:55:22;0.76;96.61
71436;SHT31;59251;51.326;12.370;2022-11-21T03:57:47;0.87;96.49
71436;SHT31;59251;51.326;12.370;2022-11-21T04:00:14;0.90;95.87
71436;SHT31;59251;51.326;12.370;2022-11-21T04:02:39;0.87;95.73
71436;SHT31;59251;51.326;12.370;2022-11-21T04:05:05;0.66;96.06
71436;SHT31;59251;51.326;12.370;2022-11-21T04:07:30;0.65;95.61
71436;SHT31;59251;51.326;12.370;2022-11-21T04:09:56;0.62;95.32
71436;SHT31;59251;51.326;12.370;2022-11-21T04:12:21;0.53;95.30
71436;SHT31;59251;51.326;12.370;2022-11-21T04:14:46;0.41;95.36
71436;SHT31;59251;51.326;12.370;2022-11-21T04:17:12;0.38;95.63
71436;SHT31;59251;51.326;12.370;2022-11-21T04:19:37;0.25;95.86
71436;SHT31;59251;51.326;12.370;2022-11-21T04:22:03;0.38;95.76
71436;SHT31;59251;51.326;12.370;2022-11-21T04:24:28;0.24;96.14
71436;SHT31;59251;51.326;12.370;2022-11-21T04:26:54;0.25;96.15
71436;SHT31;59251;51.326;12.370;2022-11-21T04:29:19;0.11;95.79
71436;SHT31;59251;51.326;12.370;2022-11-21T04:31:45;0.19;96.05
71436;SHT31;59251;51.326;12.370;2022-11-21T04:34:10;0.26;95.68
71436;SHT31;59251;51.326;12.370;2022-11-21T04:36:36;0.21;95.57
71436;SHT31;59251;51.326;12.370;2022-11-21T04:39:01;0.04;96.06
71436;SHT31;59251;51.326;12.370;2022-11-21T04:41:26;-0.02;95.82
71436;SHT31;59251;51.326;12.370;2022-11-21T04:43:52;0.19;95.97
71436;SHT31;59251;51.326;12.370;2022-11-21T04:46:17;0.26;95.82
71436;SHT31;59251;51.326;12.370;2022-11-21T04:48:43;0.30;95.53
71436;SHT31;59251;51.326;12.370;2022-11-21T04:51:08;0.15;95.27
71436;SHT31;59251;51.326;12.370;2022-11-21T04:53:33;0.21;95.58
71436;SHT31;59251;51.326;12.370;2022-11-21T04:56:03;0.17;95.47
71436;SHT31;59251;51.326;12.370;2022-11-21T04:58:29;0.18;95.95
71436;SHT31;59251;51.326;12.370;2022-11-21T05:00:55;0.21;95.49
71436;SHT31;59251;51.326;12.370;2022-11-21T05:03:20;0.14;95.39
71436;SHT31;59251;51.326;12.370;2022-11-21T05:05:45;0.17;95.42
71436;SHT31;59251;51.326;12.370;2022-11-21T05:08:11;0.11;95.77
71436;SHT31;59251;51.326;12.370;2022-11-21T05:10:36;0.05;95.70
71436;SHT31;59251;51.326;12.370;2022-11-21T05:13:22;0.01;95.94
71436;SHT31;59251;51.326;12.370;2022-11-21T05:15:47;0.02;95.73
71436;SHT31;59251;51.326;12.370;2022-11-21T05:18:18;0.11;95.79
71436;SHT31;59251;51.326;12.370;2022-11-21T05:20:44;0.11;95.51
71436;SHT31;59251;51.326;12.370;2022-11-21T05:23:09;0.09;95.64
71436;SHT31;59251;51.326;12.370;2022-11-21T05:25:35;0.12;95.73
71436;SHT31;59251;51.326;12.370;2022-11-21T05:28:00;0.19;95.44
71436;SHT31;59251;51.326;12.370;2022-11-21T05:30:29;0.17;95.40
71436;SHT31;59251;51.326;12.370;2022-11-21T05:32:54;-0.03;96.21
71436;SHT31;59251;51.326;12.370;2022-11-21T05:35:20;-0.07;96.24
71436;SHT31;59251;51.326;12.370;2022-11-21T05:37:45;-0.11;96.67
71436;SHT31;59251;51.326;12.370;2022-11-21T05:40:11;-0.02;97.20
71436;SHT31;59251;51.326;12.370;2022-11-21T05:42:41;-0.16;96.73
71436;SHT31;59251;51.326;12.370;2022-11-21T05:45:25;-0.07;96.51
71436;SHT31;59251;51.326;12.370;2022-11-21T05:47:50;0.07;96.29
71436;SHT31;59251;51.326;12.370;2022-11-21T05:50:16;-0.02;96.47
71436;SHT31;59251;51.326;12.370;2022-11-21T05:52:41;0.09;96.77
71436;SHT31;59251;51.326;12.370;2022-11-21T05:55:07;-0.02;96.55
71436;SHT31;59251;51.326;12.370;2022-11-21T05:57:32;-0.11;96.80
71436;SHT31;59251;51.326;12.370;2022-11-21T05:59:58;0.01;97.05
71436;SHT31;59251;51.326;12.370;2022-11-21T06:02:23;-0.11;96.86
71436;SHT31;59251;51.326;12.370;2022-11-21T06:05:07;-0.09;97.13
71436;SHT31;59251;51.326;12.370;2022-11-21T06:07:33;0.11;96.43
71436;SHT31;59251;51.326;12.370;2022-11-21T06:09:58;0.07;96.40
71436;SHT31;59251;51.326;12.370;2022-11-21T06:12:24;-0.03;96.20
71436;SHT31;59251;51.326;12.370;2022-11-21T06:14:49;-0.10;96.32
71436;SHT31;59251;51.326;12.370;2022-11-21T06:17:14;-0.05;95.52
71436;SHT31;59251;51.326;12.370;2022-11-21T06:19:40;0.02;95.53
71436;SHT31;59251;51.326;12.370;2022-11-21T06:22:05;0.01;95.43
71436;SHT31;59251;51.326;12.370;2022-11-21T06:24:31;0.00;95.81
71436;SHT31;59251;51.326;12.370;2022-11-21T06:26:56;0.00;95.59
71436;SHT31;59251;51.326;12.370;2022-11-21T06:29:22;-0.02;96.13
71436;SHT31;59251;51.326;12.370;2022-11-21T06:31:47;-0.11;95.70
71436;SHT31;59251;51.326;12.370;2022-11-21T06:34:12;-0.13;95.81
71436;SHT31;59251;51.326;12.370;2022-11-21T06:36:38;-0.09;96.19
71436;SHT31;59251;51.326;12.370;2022-11-21T06:39:03;-0.13;95.95
71436;SHT31;59251;51.326;12.370;2022-11-21T06:41:29;-0.17;96.13
71436;SHT31;59251;51.326;12.370;2022-11-21T06:43:58;-0.11;95.64
71436;SHT31;59251;51.326;12.370;2022-11-21T06:46:25;-0.05;95.41
71436;SHT31;59251;51.326;12.370;2022-11-21T06:48:50;-0.13;95.63
71436;SHT31;59251;51.326;12.370;2022-11-21T06:51:20;0.52;95.42
71436;SHT31;59251;51.326;12.370;2022-11-21T06:53:50;0.35;94.38
71436;SHT31;59251;51.326;12.370;2022-11-21T06:56:20;0.15;95.05
71436;SHT31;59251;51.326;12.370;2022-11-21T06:58:45;0.01;95.89
71436;SHT31;59251;51.326;12.370;2022-11-21T07:01:10;-0.19;95.56
71436;SHT31;59251;51.326;12.370;2022-11-21T07:03:36;-0.30;96.22
71436;SHT31;59251;51.326;12.370;2022-11-21T07:06:02;-0.21;96.33
71436;SHT31;59251;51.326;12.370;2022-11-21T07:08:29;0.00;95.88
71436;SHT31;59251;51.326;12.370;2022-11-21T07:10:55;-0.09;95.48
71436;SHT31;59251;51.326;12.370;2022-11-21T07:13:20;-0.27;96.78
71436;SHT31;59251;51.326;12.370;2022-11-21T07:15:48;-0.34;96.74
71436;SHT31;59251;51.326;12.370;2022-11-21T07:18:14;0.17;95.48
71436;SHT31;59251;51.326;12.370;2022-11-21T07:20:40;0.29;94.74
71436;SHT31;59251;51.326;12.370;2022-11-21T07:23:06;-0.23;95.21
71436;SHT31;59251;51.326;12.370;2022-11-21T07:25:32;0.12;95.63
71436;SHT31;59251;51.326;12.370;2022-11-21T07:28:01;-0.14;95.87
71436;SHT31;59251;51.326;12.370;2022-11-21T07:30:27;-0.20;95.75
71436;SHT31;59251;51.326;12.370;2022-11-21T07:32:56;-0.06;95.87
71436;SHT31;59251;51.326;12.370;2022-11-21T07:35:22;0.04;95.80
71436;SHT31;59251;51.326;12.370;2022-11-21T07:37:47;0.28;95.08
71436;SHT31;59251;51.326;12.370;2022-11-21T07:40:13;0.22;95.10
71436;SHT31;59251;51.326;12.370;2022-11-21T07:42:38;-0.05;95.12
71436;SHT31;59251;51.326;12.370;2022-11-21T07:45:04;0.24;95.55
71436;SHT31;59251;51.326;12.370;2022-11-21T07:47:29;-0.07;95.63
71436;SHT31;59251;51.326;12.370;2022-11-21T07:49:55;-0.09;95.44
71436;SHT31;59251;51.326;12.370;2022-11-21T07:52:20;0.37;95.01
71436;SHT31;59251;51.326;12.370;2022-11-21T07:54:45;0.37;94.38
71436;SHT31;59251;51.326;12.370;2022-11-21T07:57:11;0.33;93.95
71436;SHT31;59251;51.326;12.370;2022-11-21T07:59:36;0.30;93.85
71436;SHT31;59251;51.326;12.370;2022-11-21T08:02:02;0.22;93.95
71436;SHT31;59251;51.326;12.370;2022-11-21T08:04:28;0.22;94.51
71436;SHT31;59251;51.326;12.370;2022-11-21T08:06:54;0.01;95.08
71436;SHT31;59251;51.326;12.370;2022-11-21T08:09:19;0.12;95.05
71436;SHT31;59251;51.326;12.370;2022-11-21T08:11:45;0.12;94.38
71436;SHT31;59251;51.326;12.370;2022-11-21T08:14:10;0.22;94.32
71436;SHT31;59251;51.326;12.370;2022-11-21T08:16:35;0.26;94.70
71436;SHT31;59251;51.326;12.370;2022-11-21T08:19:01;0.11;94.73
71436;SHT31;59251;51.326;12.370;2022-11-21T08:21:26;0.28;93.92
71436;SHT31;59251;51.326;12.370;2022-11-21T08:23:53;0.26;93.76
71436;SHT31;59251;51.326;12.370;2022-11-21T08:26:18;0.00;95.09
71436;SHT31;59251;51.326;12.370;2022-11-21T08:28:44;0.25;94.60
71436;SHT31;59251;51.326;12.370;2022-11-21T08:31:09;0.21;94.39
71436;SHT31;59251;51.326;12.370;2022-11-21T08:33:35;0.02;95.06
71436;SHT31;59251;51.326;12.370;2022-11-21T08:36:05;-0.17;96.16
71436;SHT31;59251;51.326;12.370;2022-11-21T08:38:31;-0.10;95.73
71436;SHT31;59251;51.326;12.370;2022-11-21T08:40:56;0.14;94.26
71436;SHT31;59251;51.326;12.370;2022-11-21T08:43:40;0.33;93.89
71436;SHT31;59251;51.326;12.370;2022-11-21T08:46:06;0.48;93.48
71436;SHT31;59251;51.326;12.370;2022-11-21T08:48:31;0.37;93.85
71436;SHT31;59251;51.326;12.370;2022-11-21T08:50:56;0.45;93.90
71436;SHT31;59251;51.326;12.370;2022-11-21T08:53:22;0.18;93.69
71436;SHT31;59251;51.326;12.370;2022-11-21T08:55:47;0.11;96.01
71436;SHT31;59251;51.326;12.370;2022-11-21T08:58:13;0.30;95.60
71436;SHT31;59251;51.326;12.370;2022-11-21T09:00:38;0.67;93.32
71436;SHT31;59251;51.326;12.370;2022-11-21T09:03:04;0.41;93.58
71436;SHT31;59251;51.326;12.370;2022-11-21T09:05:29;0.86;92.91
71436;SHT31;59251;51.326;12.370;2022-11-21T09:07:56;0.94;91.68
71436;SHT31;59251;51.326;12.370;2022-11-21T09:10:22;0.57;91.95
71436;SHT31;59251;51.326;12.370;2022-11-21T09:12:47;0.57;92.10
71436;SHT31;59251;51.326;12.370;2022-11-21T09:15:13;0.66;92.63
71436;SHT31;59251;51.326;12.370;2022-11-21T09:18:01;0.96;91.69
71436;SHT31;59251;51.326;12.370;2022-11-21T09:20:30;0.80;92.31
71436;SHT31;59251;51.326;12.370;2022-11-21T09:22:56;0.60;93.60
71436;SHT31;59251;51.326;12.370;2022-11-21T09:25:21;1.17;91.46
71436;SHT31;59251;51.326;12.370;2022-11-21T09:27:47;0.84;93.01
71436;SHT31;59251;51.326;12.370;2022-11-21T09:30:13;0.93;93.29
71436;SHT31;59251;51.326;12.370;2022-11-21T09:32:38;1.59;90.26
71436;SHT31;59251;51.326;12.370;2022-11-21T09:35:04;1.65;90.07
71436;SHT31;59251;51.326;12.370;2022-11-21T09:37:38;1.41;91.15
71436;SHT31;59251;51.326;12.370;2022-11-21T09:40:05;1.73;89.79
71436;SHT31;59251;51.326;12.370;2022-11-21T09:45:36;1.84;88.99
71436;SHT31;59251;51.326;12.370;2022-11-21T09:48:09;1.83;87.90
71436;SHT31;59251;51.326;12.370;2022-11-21T09:50:40;2.00;88.58
71436;SHT31;59251;51.326;12.370;2022-11-21T09:53:20;1.39;89.75
71436;SHT31;59251;51.326;12.370;2022-11-21T10:01:01;1.69;89.70
71436;SHT31;59251;51.326;12.370;2022-11-21T10:03:50;1.69;90.22
71436;SHT31;59251;51.326;12.370;2022-11-21T10:06:19;1.48;90.66
71436;SHT31;59251;51.326;12.370;2022-11-21T10:12:12;1.83;89.01
71436;SHT31;59251;51.326;12.370;2022-11-21T10:23:01;1.96;88.75
71436;SHT31;59251;51.326;12.370;2022-11-21T10:25:36;1.56;88.92
71436;SHT31;59251;51.326;12.370;2022-11-21T10:28:16;1.76;90.14
71436;SHT31;59251;51.326;12.370;2022-11-21T10:30:44;2.15;87.44
71436;SHT31;59251;51.326;12.370;2022-11-21T10:33:18;2.22;87.36
71436;SHT31;59251;51.326;12.370;2022-11-21T10:35:47;2.15;87.46
71436;SHT31;59251;51.326;12.370;2022-11-21T10:38:20;1.97;89.30
71436;SHT31;59251;51.326;12.370;2022-11-21T10:41:04;1.44;90.59
71436;SHT31;59251;51.326;12.370;2022-11-21T10:43:38;1.63;90.56
71436;SHT31;59251;51.326;12.370;2022-11-21T10:46:24;1.42;91.40
71436;SHT31;59251;51.326;12.370;2022-11-21T10:49:00;2.10;89.39
71436;SHT31;59251;51.326;12.370;2022-11-21T10:54:11;2.18;88.96
71436;SHT31;59251;51.326;12.370;2022-11-21T10:57:00;2.11;88.03
71436;SHT31;59251;51.326;12.370;2022-11-21T10:59:28;1.59;88.66
71436;SHT31;59251;51.326;12.370;2022-11-21T11:02:09;1.67;90.40
71436;SHT31;59251;51.326;12.370;2022-11-21T11:04:45;1.48;90.13
71436;SHT31;59251;51.326;12.370;2022-11-21T11:07:25;1.27;90.96
71436;SHT31;59251;51.326;12.370;2022-11-21T11:09:51;1.51;90.71
71436;SHT31;59251;51.326;12.370;2022-11-21T11:12:30;2.13;89.69
71436;SHT31;59251;51.326;12.370;2022-11-21T11:15:23;2.07;89.20
71436;SHT31;59251;51.326;12.370;2022-11-21T11:18:11;2.14;88.87
71436;SHT31;59251;51.326;12.370;2022-11-21T11:20:42;1.77;90.06
71436;SHT31;59251;51.326;12.370;2022-11-21T11:23:24;1.53;91.58
71436;SHT31;59251;51.326;12.370;2022-11-21T11:25:52;1.28;92.77
71436;SHT31;59251;51.326;12.370;2022-11-21T11:28:18;2.06;90.24
71436;SHT31;59251;51.326;12.370;2022-11-21T11:30:45;1.55;91.89
71436;SHT31;59251;51.326;12.370;2022-11-21T11:33:36;1.09;93.21
71436;SHT31;59251;51.326;12.370;2022-11-21T11:36:10;1.17;92.86
71436;SHT31;59251;51.326;12.370;2022-11-21T11:38:37;1.17;92.10
71436;SHT31;59251;51.326;12.370;2022-11-21T11:41:18;1.41;91.07
71436;SHT31;59251;51.326;12.370;2022-11-21T11:44:06;1.34;92.58
71436;SHT31;59251;51.326;12.370;2022-11-21T11:47:09;1.13;91.68
71436;SHT31;59251;51.326;12.370;2022-11-21T11:50:17;1.65;90.48
71436;SHT31;59251;51.326;12.370;2022-11-21T11:55:47;2.38;87.76
71436;SHT31;59251;51.326;12.370;2022-11-21T12:01:14;2.15;89.42
71436;SHT31;59251;51.326;12.370;2022-11-21T12:04:09;1.59;91.02
71436;SHT31;59251;51.326;12.370;2022-11-21T12:12:07;2.27;89.93
71436;SHT31;59251;51.326;12.370;2022-11-21T12:17:30;2.71;87.84
71436;SHT31;59251;51.326;12.370;2022-11-21T12:19:58;2.41;87.49
71436;SHT31;59251;51.326;12.370;2022-11-21T12:22:26;2.40;89.45
71436;SHT31;59251;51.326;12.370;2022-11-21T12:24:52;2.15;89.30
71436;SHT31;59251;51.326;12.370;2022-11-21T12:27:33;2.09;89.96
71436;SHT31;59251;51.326;12.370;2022-11-21T12:33:18;2.30;88.42
71436;SHT31;59251;51.326;12.370;2022-11-21T12:38:45;2.27;89.37
71436;SHT31;59251;51.326;12.370;2022-11-21T12:41:36;1.94;89.89
71436;SHT31;59251;51.326;12.370;2022-11-21T12:50:05;1.31;91.91
71436;SHT31;59251;51.326;12.370;2022-11-21T12:53:00;1.69;92.03
71436;SHT31;59251;51.326;12.370;2022-11-21T12:55:56;1.80;90.85
71436;SHT31;59251;51.326;12.370;2022-11-21T12:58:38;1.41;91.92
71436;SHT31;59251;51.326;12.370;2022-11-21T13:06:26;1.36;93.40
71436;SHT31;59251;51.326;12.370;2022-11-21T13:08:54;1.53;92.03
71436;SHT31;59251;51.326;12.370;2022-11-21T13:11:45;1.23;93.14
71436;SHT31;59251;51.326;12.370;2022-11-21T13:14:39;1.25;93.43
71436;SHT31;59251;51.326;12.370;2022-11-21T13:22:51;1.34;92.93
71436;SHT31;59251;51.326;12.370;2022-11-21T13:25:39;1.48;92.43
71436;SHT31;59251;51.326;12.370;2022-11-21T13:30:53;1.48;92.16
71436;SHT31;59251;51.326;12.370;2022-11-21T13:38:25;1.53;93.57
71436;SHT31;59251;51.326;12.370;2022-11-21T13:40:51;1.39;93.35
71436;SHT31;59251;51.326;12.370;2022-11-21T13:43:35;1.24;93.92
71436;SHT31;59251;51.326;12.370;2022-11-21T13:46:01;1.39;93.94
71436;SHT31;59251;51.326;12.370;2022-11-21T14:07:24;1.27;93.85
71436;SHT31;59251;51.326;12.370;2022-11-21T14:09:51;1.17;93.15
71436;SHT31;59251;51.326;12.370;2022-11-21T14:12:22;1.24;92.95
71436;SHT31;59251;51.326;12.370;2022-11-21T14:15:06;1.23;93.82
71436;SHT31;59251;51.326;12.370;2022-11-21T14:17:44;1.05;94.27
71436;SHT31;59251;51.326;12.370;2022-11-21T14:20:34;1.09;93.96
71436;SHT31;59251;51.326;12.370;2022-11-21T14:23:17;1.18;94.38
71436;SHT31;59251;51.326;12.370;2022-11-21T14:28:24;1.28;93.45
71436;SHT31;59251;51.326;12.370;2022-11-21T14:31:03;1.17;92.07
71436;SHT31;59251;51.326;12.370;2022-11-21T14:33:34;1.17;92.41
71436;SHT31;59251;51.326;12.370;2022-11-21T14:36:14;1.27;93.00
71436;SHT31;59251;51.326;12.370;2022-11-21T14:46:25;1.36;93.65
71436;SHT31;59251;51.326;12.370;2022-11-21T14:48:51;1.18;94.37
71436;SHT31;59251;51.326;12.370;2022-11-21T14:51:20;1.09;94.77
71436;SHT31;59251;51.326;12.370;2022-11-21T14:53:48;1.13;94.82
71436;SHT31;59251;51.326;12.370;2022-11-21T14:56:28;1.11;94.88
71436;SHT31;59251;51.326;12.370;2022-11-21T14:58:55;1.04;94.59
71436;SHT31;59251;51.326;12.370;2022-11-21T15:01:26;2.00;96.67
71436;SHT31;59251;51.326;12.370;2022-11-21T15:04:05;1.84;93.44
71436;SHT31;59251;51.326;12.370;2022-11-21T15:06:40;1.42;93.55
71436;SHT31;59251;51.326;12.370;2022-11-21T15:09:11;1.34;94.22
71436;SHT31;59251;51.326;12.370;2022-11-21T15:12:01;1.27;94.49
71436;SHT31;59251;51.326;12.370;2022-11-21T15:14:44;1.27;94.74
71436;SHT31;59251;51.326;12.370;2022-11-21T15:17:14;1.30;94.88
71436;SHT31;59251;51.326;12.370;2022-11-21T15:19:41;1.21;95.25
71436;SHT31;59251;51.326;12.370;2022-11-21T15:22:32;1.05;95.49
71436;SHT31;59251;51.326;12.370;2022-11-21T15:25:14;1.09;95.40
71436;SHT31;59251;51.326;12.370;2022-11-21T15:27:42;1.09;95.53
71436;SHT31;59251;51.326;12.370;2022-11-21T15:32:33;1.04;95.73
71436;SHT31;59251;51.326;12.370;2022-11-21T15:34:58;0.96;95.77
71436;SHT31;59251;51.326;12.370;2022-11-21T15:37:24;0.90;95.84
71436;SHT31;59251;51.326;12.370;2022-11-21T15:39:51;0.90;95.92
71436;SHT31;59251;51.326;12.370;2022-11-21T15:44:59;1.03;95.94
71436;SHT31;59251;51.326;12.370;2022-11-21T15:47:25;0.97;95.89
71436;SHT31;59251;51.326;12.370;2022-11-21T15:49:50;0.93;96.18
71436;SHT31;59251;51.326;12.370;2022-11-21T15:52:16;0.91;96.05
71436;SHT31;59251;51.326;12.370;2022-11-21T15:54:41;1.01;95.73
71436;SHT31;59251;51.326;12.370;2022-11-21T15:57:08;1.08;95.89
71436;SHT31;59251;51.326;12.370;2022-11-21T15:59:34;1.14;95.87
71436;SHT31;59251;51.326;12.370;2022-11-21T16:01:59;1.15;95.41
71436;SHT31;59251;51.326;12.370;2022-11-21T16:04:25;1.08;95.75
71436;SHT31;59251;51.326;12.370;2022-11-21T16:06:50;1.09;95.92
71436;SHT31;59251;51.326;12.370;2022-11-21T16:09:15;1.07;95.98
71436;SHT31;59251;51.326;12.370;2022-11-21T16:11:41;1.04;95.97
71436;SHT31;59251;51.326;12.370;2022-11-21T16:14:07;1.05;96.07
71436;SHT31;59251;51.326;12.370;2022-11-21T16:16:36;1.08;96.10
71436;SHT31;59251;51.326;12.370;2022-11-21T16:19:02;1.11;95.91
71436;SHT31;59251;51.326;12.370;2022-11-21T16:21:28;1.04;96.03
71436;SHT31;59251;51.326;12.370;2022-11-21T16:23:54;1.05;95.94
71436;SHT31;59251;51.326;12.370;2022-11-21T16:26:20;1.00;96.04
71436;SHT31;59251;51.326;12.370;2022-11-21T16:28:46;0.91;96.44
71436;SHT31;59251;51.326;12.370;2022-11-21T16:31:19;0.88;96.27
71436;SHT31;59251;51.326;12.370;2022-11-21T16:33:45;0.70;96.65
71436;SHT31;59251;51.326;12.370;2022-11-21T16:36:11;0.76;96.57
71436;SHT31;59251;51.326;12.370;2022-11-21T16:38:36;0.65;96.81
71436;SHT31;59251;51.326;12.370;2022-11-21T16:41:02;0.66;97.01
71436;SHT31;59251;51.326;12.370;2022-11-21T16:43:31;0.60;97.05
71436;SHT31;59251;51.326;12.370;2022-11-21T16:46:07;0.57;97.18
71436;SHT31;59251;51.326;12.370;2022-11-21T16:48:33;0.50;97.02
71436;SHT31;59251;51.326;12.370;2022-11-21T16:53:42;0.50;97.22
71436;SHT31;59251;51.326;12.370;2022-11-21T16:56:09;0.50;97.09
71436;SHT31;59251;51.326;12.370;2022-11-21T16:58:35;0.46;97.14
71436;SHT31;59251;51.326;12.370;2022-11-21T17:03:35;0.37;97.24
71436;SHT31;59251;51.326;12.370;2022-11-21T17:06:01;0.39;97.27
71436;SHT31;59251;51.326;12.370;2022-11-21T17:08:29;0.42;97.04
71436;SHT31;59251;51.326;12.370;2022-11-21T17:10:55;0.42;97.02
71436;SHT31;59251;51.326;12.370;2022-11-21T17:13:20;0.44;97.11
71436;SHT31;59251;51.326;12.370;2022-11-21T17:15:45;0.38;97.05
71436;SHT31;59251;51.326;12.370;2022-11-21T17:18:11;0.39;97.12
71436;SHT31;59251;51.326;12.370;2022-11-21T17:20:36;0.37;97.16
71436;SHT31;59251;51.326;12.370;2022-11-21T17:23:02;0.32;97.13
71436;SHT31;59251;51.326;12.370;2022-11-21T17:25:28;0.28;97.31
71436;SHT31;59251;51.326;12.370;2022-11-21T17:27:53;0.21;97.47
71436;SHT31;59251;51.326;12.370;2022-11-21T17:30:19;0.17;97.51
71436;SHT31;59251;51.326;12.370;2022-11-21T17:32:45;0.15;97.53